sensor_id;sensor_type;location;lat;lon;timestamp;pressure;altitude;pressure_sealevel;temperature;humidity
23733;BME280;12047;53.450;-2.286;2023-03-19T00:02:10;100738.50;;;13.54;100.00
23733;BME280;12047;53.450;-2.286;2023-03-19T00:07:11;100745.56;;;13.97;100.00
23733;BME280;12047;53.450;-2.286;2023-03-19T00:12:12;100751.94;;;14.12;100.00
23733;BME280;12047;53.450;-2.286;2023-03-19T00:17:12;100745.56;;;13.97;100.00
23733;BME280;12047;53.450;-2.286;2023-03-19T00:22:13;100763.06;;;14.00;100.00
23733;BME280;12047;53.450;-2.286;2023-03-19T00:27:13;100779.25;;;13.37;100.00
23733;BME280;12047;53.450;-2.286;2023-03-19T00:32:14;100764.44;;;14.12;100.00
23733;BME280;12047;53.450;-2.286;2023-03-19T00:37:15;100781.91;;;13.54;100.00
23733;BME280;12047;53.450;-2.286;2023-03-19T00:42:16;100786.97;;;13.22;100.00
23733;BME280;12047;53.450;-2.286;2023-03-19T00:47:17;100788.47;;;13.42;100.00
23733;BME280;12047;53.450;-2.286;2023-03-19T00:52:18;100785.19;;;13.48;100.00
23733;BME280;12047;53.450;-2.286;2023-03-19T00:57:18;100786.78;;;13.41;100.00
23733;BME280;12047;53.450;-2.286;2023-03-19T01:02:18;100787.34;;;13.71;100.00
23733;BME280;12047;53.450;-2.286;2023-03-19T01:07:19;100795.94;;;13.21;100.00
23733;BME280;12047;53.450;-2.286;2023-03-19T01:12:20;100795.59;;;13.59;100.00
23733;BME280;12047;53.450;-2.286;2023-03-19T01:17:21;100806.06;;;13.17;100.00
23733;BME280;12047;53.450;-2.286;2023-03-19T01:22:21;100807.69;;;13.54;100.00
23733;BME280;12047;53.450;-2.286;2023-03-19T01:27:22;100820.88;;;13.38;100.00
23733;BME280;12047;53.450;-2.286;2023-03-19T01:32:22;100811.25;;;13.62;100.00
23733;BME280;12047;53.450;-2.286;2023-03-19T01:37:23;100816.72;;;13.35;100.00
23733;BME280;12047;53.450;-2.286;2023-03-19T01:42:23;100813.28;;;13.25;100.00
23733;BME280;12047;53.450;-2.286;2023-03-19T01:47:29;100815.38;;;13.39;100.00
23733;BME280;12047;53.450;-2.286;2023-03-19T01:52:33;100810.75;;;13.59;100.00
23733;BME280;12047;53.450;-2.286;2023-03-19T01:57:34;100812.00;;;13.73;100.00
23733;BME280;12047;53.450;-2.286;2023-03-19T02:02:35;100806.56;;;13.39;100.00
23733;BME280;12047;53.450;-2.286;2023-03-19T02:07:39;100816.59;;;13.09;100.00
23733;BME280;12047;53.450;-2.286;2023-03-19T02:12:40;100823.47;;;13.73;100.00
23733;BME280;12047;53.450;-2.286;2023-03-19T02:17:41;100808.19;;;12.69;100.00
23733;BME280;12047;53.450;-2.286;2023-03-19T02:22:50;100824.03;;;13.06;100.00
23733;BME280;12047;53.450;-2.286;2023-03-19T02:27:52;100826.72;;;13.41;100.00
23733;BME280;12047;53.450;-2.286;2023-03-19T02:32:53;100832.09;;;13.67;100.00
23733;BME280;12047;53.450;-2.286;2023-03-19T02:37:53;100834.06;;;13.65;100.00
23733;BME280;12047;53.450;-2.286;2023-03-19T02:42:54;100827.38;;;13.61;100.00
23733;BME280;12047;53.450;-2.286;2023-03-19T02:47:55;100826.53;;;14.04;100.00
23733;BME280;12047;53.450;-2.286;2023-03-19T02:52:55;100836.00;;;14.33;100.00
23733;BME280;12047;53.450;-2.286;2023-03-19T02:57:56;100846.03;;;14.13;100.00
23733;BME280;12047;53.450;-2.286;2023-03-19T03:02:57;100845.03;;;13.88;100.00
23733;BME280;12047;53.450;-2.286;2023-03-19T03:07:57;100859.09;;;13.72;100.00
23733;BME280;12047;53.450;-2.286;2023-03-19T03:12:59;100869.09;;;13.52;100.00
23733;BME280;12047;53.450;-2.286;2023-03-19T03:18:00;100873.84;;;13.67;100.00
23733;BME280;12047;53.450;-2.286;2023-03-19T03:23:00;100875.28;;;13.61;100.00
23733;BME280;12047;53.450;-2.286;2023-03-19T03:28:01;100873.28;;;13.99;100.00
23733;BME280;12047;53.450;-2.286;2023-03-19T03:33:02;100882.88;;;13.91;100.00
23733;BME280;12047;53.450;-2.286;2023-03-19T03:38:03;100884.56;;;13.75;100.00
23733;BME280;12047;53.450;-2.286;2023-03-19T03:43:04;100879.63;;;13.62;100.00
23733;BME280;12047;53.450;-2.286;2023-03-19T03:48:04;100894.16;;;13.68;100.00
23733;BME280;12047;53.450;-2.286;2023-03-19T03:53:05;100894.13;;;14.29;100.00
23733;BME280;12047;53.450;-2.286;2023-03-19T03:58:06;100907.63;;;13.84;100.00
23733;BME280;12047;53.450;-2.286;2023-03-19T04:03:06;100908.53;;;14.18;100.00
23733;BME280;12047;53.450;-2.286;2023-03-19T04:08:07;100914.78;;;14.27;100.00
23733;BME280;12047;53.450;-2.286;2023-03-19T04:13:09;100921.75;;;14.46;100.00
23733;BME280;12047;53.450;-2.286;2023-03-19T04:18:10;100914.59;;;14.03;100.00
23733;BME280;12047;53.450;-2.286;2023-03-19T04:23:10;100907.72;;;13.56;100.00
23733;BME280;12047;53.450;-2.286;2023-03-19T04:28:11;100920.09;;;14.01;100.00
23733;BME280;12047;53.450;-2.286;2023-03-19T04:33:11;100923.13;;;13.88;100.00
23733;BME280;12047;53.450;-2.286;2023-03-19T04:38:12;100930.63;;;14.37;100.00
23733;BME280;12047;53.450;-2.286;2023-03-19T04:43:12;100938.06;;;13.81;100.00
23733;BME280;12047;53.450;-2.286;2023-03-19T04:48:13;100938.72;;;14.01;100.00
23733;BME280;12047;53.450;-2.286;2023-03-19T04:53:13;100948.13;;;14.13;100.00
23733;BME280;12047;53.450;-2.286;2023-03-19T04:58:14;100950.09;;;13.85;100.00
23733;BME280;12047;53.450;-2.286;2023-03-19T05:03:15;100950.47;;;13.73;100.00
23733;BME280;12047;53.450;-2.286;2023-03-19T05:08:15;100955.25;;;13.69;100.00
23733;BME280;12047;53.450;-2.286;2023-03-19T05:13:16;100951.63;;;14.14;100.00
23733;BME280;12047;53.450;-2.286;2023-03-19T05:18:17;100959.78;;;14.30;100.00
23733;BME280;12047;53.450;-2.286;2023-03-19T05:23:17;100962.72;;;14.01;100.00
23733;BME280;12047;53.450;-2.286;2023-03-19T05:28:18;100968.66;;;13.95;100.00
23733;BME280;12047;53.450;-2.286;2023-03-19T05:33:18;100976.22;;;14.25;100.00
23733;BME280;12047;53.450;-2.286;2023-03-19T05:38:19;100979.28;;;14.13;100.00
23733;BME280;12047;53.450;-2.286;2023-03-19T05:43:19;100977.09;;;13.90;100.00
23733;BME280;12047;53.450;-2.286;2023-03-19T05:48:20;100982.03;;;14.03;100.00
23733;BME280;12047;53.450;-2.286;2023-03-19T05:53:21;100987.84;;;13.81;100.00
23733;BME280;12047;53.450;-2.286;2023-03-19T05:58:22;100989.97;;;13.77;100.00
23733;BME280;12047;53.450;-2.286;2023-03-19T06:03:22;101001.84;;;14.01;100.00
23733;BME280;12047;53.450;-2.286;2023-03-19T06:08:23;101009.56;;;14.12;100.00
23733;BME280;12047;53.450;-2.286;2023-03-19T06:13:23;101021.56;;;14.08;100.00
23733;BME280;12047;53.450;-2.286;2023-03-19T06:18:24;101024.91;;;13.92;100.00
23733;BME280;12047;53.450;-2.286;2023-03-19T06:23:25;101025.28;;;13.79;100.00
23733;BME280;12047;53.450;-2.286;2023-03-19T06:28:25;101032.72;;;13.76;100.00
23733;BME280;12047;53.450;-2.286;2023-03-19T06:33:26;101032.91;;;14.10;100.00
23733;BME280;12047;53.450;-2.286;2023-03-19T06:38:31;101040.03;;;14.45;100.00
23733;BME280;12047;53.450;-2.286;2023-03-19T06:43:31;101044.69;;;14.43;100.00
23733;BME280;12047;53.450;-2.286;2023-03-19T06:48:36;101048.56;;;14.30;100.00
23733;BME280;12047;53.450;-2.286;2023-03-19T06:53:37;101061.22;;;14.28;100.00
23733;BME280;12047;53.450;-2.286;2023-03-19T06:58:37;101062.88;;;14.29;100.00
23733;BME280;12047;53.450;-2.286;2023-03-19T07:03:38;101059.47;;;14.55;100.00
23733;BME280;12047;53.450;-2.286;2023-03-19T07:08:38;101072.44;;;15.02;100.00
23733;BME280;12047;53.450;-2.286;2023-03-19T07:13:45;101071.13;;;14.54;100.00
23733;BME280;12047;53.450;-2.286;2023-03-19T07:18:45;101075.41;;;14.73;100.00
23733;BME280;12047;53.450;-2.286;2023-03-19T07:23:46;101082.16;;;15.11;100.00
23733;BME280;12047;53.450;-2.286;2023-03-19T07:28:46;101095.44;;;14.51;100.00
23733;BME280;12047;53.450;-2.286;2023-03-19T07:33:47;101098.31;;;14.57;100.00
23733;BME280;12047;53.450;-2.286;2023-03-19T07:38:48;101114.97;;;14.77;100.00
23733;BME280;12047;53.450;-2.286;2023-03-19T07:43:51;101112.06;;;14.17;100.00
23733;BME280;12047;53.450;-2.286;2023-03-19T07:48:51;101110.25;;;14.18;100.00
23733;BME280;12047;53.450;-2.286;2023-03-19T07:53:52;101117.81;;;14.58;100.00
23733;BME280;12047;53.450;-2.286;2023-03-19T07:58:52;101122.31;;;14.57;100.00
23733;BME280;12047;53.450;-2.286;2023-03-19T08:03:53;101134.22;;;15.41;100.00
23733;BME280;12047;53.450;-2.286;2023-03-19T08:08:53;101141.31;;;15.24;100.00
23733;BME280;12047;53.450;-2.286;2023-03-19T08:13:54;101139.84;;;15.04;100.00
23733;BME280;12047;53.450;-2.286;2023-03-19T08:18:55;101145.03;;;15.05;100.00
23733;BME280;12047;53.450;-2.286;2023-03-19T08:23:55;101158.78;;;15.44;100.00
23733;BME280;12047;53.450;-2.286;2023-03-19T08:28:56;101169.78;;;14.72;100.00
23733;BME280;12047;53.450;-2.286;2023-03-19T08:33:56;101176.25;;;15.13;100.00
23733;BME280;12047;53.450;-2.286;2023-03-19T08:38:59;101185.16;;;15.21;100.00
23733;BME280;12047;53.450;-2.286;2023-03-19T08:44:00;101181.88;;;15.53;100.00
23733;BME280;12047;53.450;-2.286;2023-03-19T08:49:00;101186.69;;;14.80;100.00
23733;BME280;12047;53.450;-2.286;2023-03-19T08:54:01;101187.56;;;15.07;100.00
23733;BME280;12047;53.450;-2.286;2023-03-19T08:59:01;101189.97;;;15.18;100.00
23733;BME280;12047;53.450;-2.286;2023-03-19T09:04:02;101196.78;;;15.38;100.00
23733;BME280;12047;53.450;-2.286;2023-03-19T09:09:02;101207.06;;;15.51;100.00
23733;BME280;12047;53.450;-2.286;2023-03-19T09:14:03;101204.84;;;15.46;100.00
23733;BME280;12047;53.450;-2.286;2023-03-19T09:19:04;101214.03;;;16.04;100.00
23733;BME280;12047;53.450;-2.286;2023-03-19T09:24:04;101218.75;;;15.76;100.00
23733;BME280;12047;53.450;-2.286;2023-03-19T09:29:05;101209.53;;;16.04;100.00
23733;BME280;12047;53.450;-2.286;2023-03-19T09:34:06;101213.97;;;16.46;100.00
23733;BME280;12047;53.450;-2.286;2023-03-19T09:39:08;101217.94;;;15.31;100.00
23733;BME280;12047;53.450;-2.286;2023-03-19T09:44:30;101239.84;;;16.29;100.00
23733;BME280;12047;53.450;-2.286;2023-03-19T09:49:38;101240.50;;;16.73;100.00
23733;BME280;12047;53.450;-2.286;2023-03-19T09:54:47;101241.94;;;15.49;100.00
23733;BME280;12047;53.450;-2.286;2023-03-19T09:59:51;101232.09;;;15.06;100.00
23733;BME280;12047;53.450;-2.286;2023-03-19T10:15:34;101267.22;;;15.89;100.00
23733;BME280;12047;53.450;-2.286;2023-03-19T10:25:49;101289.66;;;16.30;100.00
23733;BME280;12047;53.450;-2.286;2023-03-19T10:36:19;101276.34;;;16.04;100.00
23733;BME280;12047;53.450;-2.286;2023-03-19T10:46:39;101296.75;;;16.47;100.00
23733;BME280;12047;53.450;-2.286;2023-03-19T10:51:43;101291.19;;;16.41;100.00
23733;BME280;12047;53.450;-2.286;2023-03-19T10:56:48;101302.19;;;16.29;100.00
23733;BME280;12047;53.450;-2.286;2023-03-19T11:01:55;101299.91;;;16.43;99.41
23733;BME280;12047;53.450;-2.286;2023-03-19T11:07:07;101295.84;;;16.30;97.44
23733;BME280;12047;53.450;-2.286;2023-03-19T11:12:17;101301.69;;;16.34;99.23
23733;BME280;12047;53.450;-2.286;2023-03-19T11:17:27;101304.28;;;16.52;99.03
23733;BME280;12047;53.450;-2.286;2023-03-19T11:22:30;101304.28;;;16.52;97.65
23733;BME280;12047;53.450;-2.286;2023-03-19T11:27:37;101299.47;;;15.87;96.69
23733;BME280;12047;53.450;-2.286;2023-03-19T11:37:58;101298.53;;;16.30;95.51
23733;BME280;12047;53.450;-2.286;2023-03-19T11:54:14;101301.84;;;16.66;89.10
23733;BME280;12047;53.450;-2.286;2023-03-19T11:59:40;101294.19;;;16.80;91.67
23733;BME280;12047;53.450;-2.286;2023-03-19T12:05:08;101301.97;;;16.57;92.08
23733;BME280;12047;53.450;-2.286;2023-03-19T12:38:58;101314.16;;;17.26;87.00
23733;BME280;12047;53.450;-2.286;2023-03-19T12:44:07;101307.78;;;17.35;86.75
23733;BME280;12047;53.450;-2.286;2023-03-19T12:49:20;101320.69;;;17.23;87.39
23733;BME280;12047;53.450;-2.286;2023-03-19T13:00:27;101330.22;;;17.50;84.90
23733;BME280;12047;53.450;-2.286;2023-03-19T13:05:38;101334.91;;;17.24;85.17
23733;BME280;12047;53.450;-2.286;2023-03-19T13:16:51;101339.91;;;17.03;88.92
23733;BME280;12047;53.450;-2.286;2023-03-19T13:22:14;101336.06;;;17.05;89.84
23733;BME280;12047;53.450;-2.286;2023-03-19T13:27:35;101330.31;;;16.84;94.76
23733;BME280;12047;53.450;-2.286;2023-03-19T13:38:25;101345.31;;;17.51;93.77
23733;BME280;12047;53.450;-2.286;2023-03-19T13:53:36;101352.34;;;16.36;96.69
23733;BME280;12047;53.450;-2.286;2023-03-19T14:04:30;101361.00;;;15.95;100.00
23733;BME280;12047;53.450;-2.286;2023-03-19T14:09:42;101341.13;;;16.66;100.00
23733;BME280;12047;53.450;-2.286;2023-03-19T14:19:53;101312.81;;;17.30;99.45
23733;BME280;12047;53.450;-2.286;2023-03-19T14:36:44;101315.66;;;17.20;96.91
23733;BME280;12047;53.450;-2.286;2023-03-19T14:53:45;101333.47;;;16.71;98.13
23733;BME280;12047;53.450;-2.286;2023-03-19T14:58:51;101337.50;;;16.83;98.23
23733;BME280;12047;53.450;-2.286;2023-03-19T15:04:26;101330.53;;;17.88;93.24
23733;BME280;12047;53.450;-2.286;2023-03-19T15:09:26;101342.97;;;17.48;90.77
23733;BME280;12047;53.450;-2.286;2023-03-19T15:19:37;101341.25;;;16.98;91.03
23733;BME280;12047;53.450;-2.286;2023-03-19T15:24:38;101352.63;;;17.00;92.14
23733;BME280;12047;53.450;-2.286;2023-03-19T15:29:39;101344.13;;;17.38;93.50
23733;BME280;12047;53.450;-2.286;2023-03-19T15:34:39;101336.44;;;17.75;90.61
23733;BME280;12047;53.450;-2.286;2023-03-19T15:39:52;101344.13;;;17.38;89.08
23733;BME280;12047;53.450;-2.286;2023-03-19T15:45:01;101341.13;;;17.57;88.06
23733;BME280;12047;53.450;-2.286;2023-03-19T15:50:15;101339.22;;;17.09;86.38
23733;BME280;12047;53.450;-2.286;2023-03-19T15:55:16;101322.03;;;17.27;85.83
23733;BME280;12047;53.450;-2.286;2023-03-19T16:00:17;101317.84;;;17.74;85.70
23733;BME280;12047;53.450;-2.286;2023-03-19T16:05:26;101317.34;;;17.54;85.81
23733;BME280;12047;53.450;-2.286;2023-03-19T16:15:43;101318.78;;;16.91;86.89
23733;BME280;12047;53.450;-2.286;2023-03-19T16:21:06;101312.44;;;16.92;89.80
23733;BME280;12047;53.450;-2.286;2023-03-19T16:26:21;101314.75;;;16.71;88.64
23733;BME280;12047;53.450;-2.286;2023-03-19T16:31:25;101311.47;;;17.02;86.56
23733;BME280;12047;53.450;-2.286;2023-03-19T16:36:30;101316.66;;;17.44;87.63
23733;BME280;12047;53.450;-2.286;2023-03-19T16:41:32;101311.44;;;16.93;88.29
23733;BME280;12047;53.450;-2.286;2023-03-19T16:46:33;101311.13;;;17.37;87.75
23733;BME280;12047;53.450;-2.286;2023-03-19T16:51:34;101302.88;;;16.74;89.91
23733;BME280;12047;53.450;-2.286;2023-03-19T16:56:36;101316.50;;;17.05;89.12
23733;BME280;12047;53.450;-2.286;2023-03-19T17:01:37;101307.44;;;17.14;89.49
23733;BME280;12047;53.450;-2.286;2023-03-19T17:06:38;101306.19;;;16.67;90.14
23733;BME280;12047;53.450;-2.286;2023-03-19T17:11:39;101317.97;;;16.91;91.30
23733;BME280;12047;53.450;-2.286;2023-03-19T17:16:41;101316.97;;;17.08;91.52
23733;BME280;12047;53.450;-2.286;2023-03-19T17:21:49;101327.53;;;17.02;91.83
23733;BME280;12047;53.450;-2.286;2023-03-19T17:26:51;101338.22;;;17.02;92.05
23733;BME280;12047;53.450;-2.286;2023-03-19T17:31:52;101331.56;;;17.54;92.13
23733;BME280;12047;53.450;-2.286;2023-03-19T17:37:02;101349.41;;;16.89;94.47
23733;BME280;12047;53.450;-2.286;2023-03-19T17:42:12;101328.06;;;16.21;97.12
23733;BME280;12047;53.450;-2.286;2023-03-19T17:47:17;101321.75;;;15.96;96.12
23733;BME280;12047;53.450;-2.286;2023-03-19T17:52:18;101322.66;;;16.47;95.45
23733;BME280;12047;53.450;-2.286;2023-03-19T17:57:20;101311.47;;;17.26;93.23
23733;BME280;12047;53.450;-2.286;2023-03-19T18:07:23;101327.88;;;17.07;92.35
23733;BME280;12047;53.450;-2.286;2023-03-19T18:12:23;101334.00;;;16.91;94.49
23733;BME280;12047;53.450;-2.286;2023-03-19T18:17:24;101332.72;;;17.03;95.04
23733;BME280;12047;53.450;-2.286;2023-03-19T18:22:25;101321.31;;;17.09;95.10
23733;BME280;12047;53.450;-2.286;2023-03-19T18:27:28;101348.09;;;17.09;95.19
23733;BME280;12047;53.450;-2.286;2023-03-19T18:32:30;101345.66;;;16.31;97.18
23733;BME280;12047;53.450;-2.286;2023-03-19T18:37:33;101357.56;;;16.71;97.42
23733;BME280;12047;53.450;-2.286;2023-03-19T18:42:37;101374.94;;;16.07;100.00
23733;BME280;12047;53.450;-2.286;2023-03-19T18:47:38;101371.28;;;16.08;100.00
23733;BME280;12047;53.450;-2.286;2023-03-19T18:58:22;101378.94;;;16.03;100.00
23733;BME280;12047;53.450;-2.286;2023-03-19T19:03:51;101378.97;;;16.71;100.00
23733;BME280;12047;53.450;-2.286;2023-03-19T19:08:55;101373.03;;;16.25;100.00
23733;BME280;12047;53.450;-2.286;2023-03-19T19:13:58;101363.44;;;16.75;99.42
23733;BME280;12047;53.450;-2.286;2023-03-19T19:19:02;101354.25;;;16.77;99.74
23733;BME280;12047;53.450;-2.286;2023-03-19T19:24:03;101352.25;;;16.45;99.66
23733;BME280;12047;53.450;-2.286;2023-03-19T19:29:18;101356.88;;;16.09;98.95
23733;BME280;12047;53.450;-2.286;2023-03-19T19:34:24;101349.47;;;16.63;97.08
23733;BME280;12047;53.450;-2.286;2023-03-19T19:39:27;101328.03;;;16.55;96.97
23733;BME280;12047;53.450;-2.286;2023-03-19T19:44:28;101320.13;;;16.79;95.46
23733;BME280;12047;53.450;-2.286;2023-03-19T19:49:31;101291.91;;;15.39;99.42
23733;BME280;12047;53.450;-2.286;2023-03-19T19:54:31;101288.41;;;16.16;97.30
23733;BME280;12047;53.450;-2.286;2023-03-19T19:59:35;101283.66;;;16.36;97.30
23733;BME280;12047;53.450;-2.286;2023-03-19T20:04:38;101295.19;;;16.37;96.78
23733;BME280;12047;53.450;-2.286;2023-03-19T20:09:39;101308.75;;;16.93;97.04
23733;BME280;12047;53.450;-2.286;2023-03-19T20:14:39;101317.84;;;15.64;100.00
23733;BME280;12047;53.450;-2.286;2023-03-19T20:19:41;101305.47;;;15.63;100.00
23733;BME280;12047;53.450;-2.286;2023-03-19T20:24:42;101328.38;;;15.66;100.00
23733;BME280;12047;53.450;-2.286;2023-03-19T20:29:42;101310.44;;;15.76;100.00
23733;BME280;12047;53.450;-2.286;2023-03-19T20:34:48;101318.59;;;15.75;100.00
23733;BME280;12047;53.450;-2.286;2023-03-19T20:40:22;101296.66;;;16.23;99.91
23733;BME280;12047;53.450;-2.286;2023-03-19T20:45:29;101295.91;;;15.79;99.37
23733;BME280;12047;53.450;-2.286;2023-03-19T20:50:32;101301.84;;;16.24;99.05
23733;BME280;12047;53.450;-2.286;2023-03-19T20:55:35;101312.34;;;15.66;100.00
23733;BME280;12047;53.450;-2.286;2023-03-19T21:00:36;101303.19;;;15.07;100.00
23733;BME280;12047;53.450;-2.286;2023-03-19T21:05:37;101306.78;;;15.59;100.00
23733;BME280;12047;53.450;-2.286;2023-03-19T21:10:43;101321.53;;;14.92;100.00
23733;BME280;12047;53.450;-2.286;2023-03-19T21:15:46;101326.22;;;15.08;100.00
23733;BME280;12047;53.450;-2.286;2023-03-19T21:20:51;101319.66;;;15.03;100.00
23733;BME280;12047;53.450;-2.286;2023-03-19T21:25:53;101309.03;;;15.28;100.00
23733;BME280;12047;53.450;-2.286;2023-03-19T21:30:57;101308.72;;;14.78;100.00
23733;BME280;12047;53.450;-2.286;2023-03-19T21:35:59;101287.97;;;14.17;100.00
23733;BME280;12047;53.450;-2.286;2023-03-19T21:41:03;101286.25;;;14.81;100.00
23733;BME280;12047;53.450;-2.286;2023-03-19T21:46:05;101302.88;;;14.38;100.00
23733;BME280;12047;53.450;-2.286;2023-03-19T22:02:38;101301.44;;;14.16;100.00
23733;BME280;12047;53.450;-2.286;2023-03-19T22:14:17;101303.41;;;14.14;100.00
23733;BME280;12047;53.450;-2.286;2023-03-19T22:37:57;101302.03;;;14.37;100.00
23733;BME280;12047;53.450;-2.286;2023-03-19T22:43:29;101289.13;;;13.78;100.00
23733;BME280;12047;53.450;-2.286;2023-03-19T22:54:30;101269.75;;;15.21;100.00
23733;BME280;12047;53.450;-2.286;2023-03-19T23:00:02;101287.28;;;14.70;100.00
23733;BME280;12047;53.450;-2.286;2023-03-19T23:05:33;101266.72;;;14.80;100.00
23733;BME280;12047;53.450;-2.286;2023-03-19T23:10:34;101254.13;;;14.27;100.00
23733;BME280;12047;53.450;-2.286;2023-03-19T23:15:36;101254.19;;;14.45;100.00
23733;BME280;12047;53.450;-2.286;2023-03-19T23:20:37;101242.03;;;13.69;100.00
23733;BME280;12047;53.450;-2.286;2023-03-19T23:25:42;101239.28;;;13.60;100.00
23733;BME280;12047;53.450;-2.286;2023-03-19T23:30:43;101238.34;;;13.79;100.00
23733;BME280;12047;53.450;-2.286;2023-03-19T23:36:09;101242.00;;;12.83;100.00
23733;BME280;12047;53.450;-2.286;2023-03-19T23:46:58;101226.88;;;13.79;100.00
23733;BME280;12047;53.450;-2.286;2023-03-19T23:52:05;101212.81;;;13.49;100.00
23733;BME280;12047;53.450;-2.286;2023-03-19T23:57:09;101202.09;;;13.69;100.00
